createdAt,value
2023-01-08T00:00:49.041Z,96.10
2023-01-08T00:04:24.414Z,96.20
2023-01-08T00:06:14.215Z,96.20
2023-01-08T00:12:43.967Z,96.20
2023-01-08T00:15:25.446Z,96.20
2023-01-08T00:15:57.448Z,96.20
2023-01-08T00:16:31.334Z,96.30
2023-01-08T00:19:14.178Z,96.20
2023-01-08T00:23:33.759Z,96.20
2023-01-08T00:24:38.671Z,96.10
2023-01-08T00:25:10.538Z,96.10
2023-01-08T00:27:53.071Z,96.00
2023-01-08T00:31:09.982Z,96.10
2023-01-08T00:32:14.462Z,96.10
2023-01-08T00:32:46.320Z,96.20
2023-01-08T00:33:50.921Z,96.20
2023-01-08T00:34:22.908Z,96.20
2023-01-08T00:34:54.912Z,96.10
2023-01-08T00:38:08.818Z,96.20
2023-01-08T00:38:41.809Z,96.20
2023-01-08T00:39:13.900Z,96.20
2023-01-08T00:39:45.937Z,96.20
2023-01-08T00:40:18.151Z,96.10
2023-01-08T00:40:50.305Z,96.40
2023-01-08T00:41:22.408Z,96.20
2023-01-08T00:41:54.332Z,96.20
2023-01-08T00:42:26.156Z,96.20
2023-01-08T00:51:08.248Z,96.20
2023-01-08T00:51:40.137Z,96.20
2023-01-08T00:52:45.156Z,96.20
2023-01-08T00:53:49.661Z,96.10
2023-01-08T00:56:03.711Z,96.20
2023-01-08T00:59:18.959Z,96.10
2023-01-08T01:02:00.627Z,96.20
2023-01-08T01:02:34.644Z,96.20
2023-01-08T01:10:12.752Z,96.20
2023-01-08T01:11:28.000Z,96.20
2023-01-08T01:11:59.900Z,96.20
2023-01-08T01:14:10.017Z,96.20
2023-01-08T01:15:16.304Z,96.20
2023-01-08T01:15:58.496Z,96.20
2023-01-08T01:17:03.481Z,96.20
2023-01-08T01:17:38.247Z,96.20
2023-01-08T01:19:16.512Z,96.20
2023-01-08T01:21:32.403Z,96.20
2023-01-08T01:26:27.937Z,96.00
2023-01-08T01:28:05.280Z,96.20
2023-01-08T01:30:54.085Z,96.20
2023-01-08T01:31:28.935Z,96.20
2023-01-08T01:32:01.138Z,96.20
2023-01-08T01:34:11.224Z,96.20
2023-01-08T01:36:24.109Z,96.20
2023-01-08T01:41:43.705Z,96.20
2023-01-08T01:42:37.529Z,96.20
2023-01-08T01:44:34.913Z,96.20
2023-01-08T01:45:22.302Z,96.20
2023-01-08T01:47:01.728Z,96.20
2023-01-08T01:47:38.509Z,96.20
2023-01-08T01:48:14.016Z,96.20
2023-01-08T01:49:23.697Z,96.20
2023-01-08T01:50:06.383Z,96.20
2023-01-08T01:53:35.057Z,96.20
2023-01-08T01:54:11.607Z,96.20
2023-01-08T01:55:50.594Z,96.20
2023-01-08T01:57:30.769Z,96.10
2023-01-08T01:58:13.985Z,96.20
2023-01-08T02:00:59.999Z,96.20
2023-01-08T02:01:33.514Z,96.20
2023-01-08T02:03:13.501Z,96.10
2023-01-08T02:05:30.075Z,96.20
2023-01-08T02:06:48.759Z,96.10
2023-01-08T02:07:36.744Z,96.10
2023-01-08T02:08:15.468Z,96.10
2023-01-08T02:10:08.314Z,96.20
2023-01-08T02:10:51.883Z,96.20
2023-01-08T02:11:38.377Z,96.00
2023-01-08T02:12:39.730Z,96.20
2023-01-08T02:13:21.741Z,96.20
2023-01-08T02:14:13.089Z,96.10
2023-01-08T02:14:54.851Z,96.10
2023-01-08T02:16:01.787Z,96.20
2023-01-08T02:16:53.821Z,96.20
2023-01-08T02:17:49.053Z,96.20
2023-01-08T02:18:30.521Z,96.20
2023-01-08T02:19:14.912Z,96.20
2023-01-08T02:19:52.660Z,96.20
2023-01-08T02:20:30.555Z,96.90
2023-01-08T02:21:14.886Z,96.20
2023-01-08T02:22:02.841Z,96.30
2023-01-08T02:23:05.779Z,96.20
2023-01-08T02:24:18.056Z,96.20
2023-01-08T02:25:01.835Z,96.30
2023-01-08T02:26:02.814Z,97.40
2023-01-08T02:26:36.802Z,96.20
2023-01-08T02:27:09.636Z,97.10
2023-01-08T02:27:45.725Z,97.30
2023-01-08T02:28:18.168Z,96.20
2023-01-08T02:28:53.480Z,96.20
2023-01-08T02:29:28.802Z,96.20
2023-01-08T02:30:04.606Z,96.20
2023-01-08T02:31:10.887Z,96.10
2023-01-08T02:31:45.254Z,96.10
2023-01-08T02:33:24.178Z,96.10
2023-01-08T02:35:06.182Z,96.30
2023-01-08T02:35:45.685Z,96.10
2023-01-08T02:36:58.050Z,96.20
2023-01-08T02:39:39.880Z,96.20
2023-01-08T02:40:31.065Z,96.20
2023-01-08T02:41:10.816Z,96.30
2023-01-08T02:41:57.414Z,96.30
2023-01-08T02:42:45.218Z,96.30
2023-01-08T02:43:36.518Z,96.30
2023-01-08T02:44:13.851Z,96.30
2023-01-08T02:45:07.025Z,96.30
2023-01-08T02:45:49.317Z,96.30
2023-01-08T02:46:54.827Z,96.30
2023-01-08T02:47:29.487Z,96.40
2023-01-08T02:48:12.734Z,96.40
2023-01-08T02:48:57.235Z,96.50
2023-01-08T02:49:36.210Z,96.60
2023-01-08T02:50:13.125Z,96.40
2023-01-08T02:50:56.628Z,97.30
2023-01-08T02:51:40.330Z,96.60
2023-01-08T02:52:14.905Z,96.40
2023-01-08T02:53:15.719Z,96.60
2023-01-08T02:53:53.537Z,96.60
2023-01-08T02:54:30.828Z,97.70
2023-01-08T02:55:04.532Z,97.40
2023-01-08T02:55:41.013Z,96.40
2023-01-08T02:56:21.912Z,97.30
2023-01-08T02:57:03.961Z,96.60
2023-01-08T02:57:36.462Z,96.60
2023-01-08T02:58:09.228Z,96.40
2023-01-08T02:58:42.227Z,96.40
2023-01-08T02:59:17.041Z,96.40
2023-01-08T02:59:52.203Z,96.40
2023-01-08T03:00:57.964Z,96.50
2023-01-08T03:02:04.316Z,96.40
2023-01-08T03:02:39.879Z,96.40
2023-01-08T03:03:24.755Z,95.60
2023-01-08T03:04:03.424Z,96.40
2023-01-08T03:04:45.481Z,96.40
2023-01-08T03:05:25.376Z,96.50
2023-01-08T03:06:04.568Z,96.50
2023-01-08T03:07:42.345Z,96.50
2023-01-08T03:08:14.829Z,96.50
2023-01-08T03:08:50.488Z,96.50
2023-01-08T03:09:22.470Z,96.50
2023-01-08T03:10:31.226Z,96.50
2023-01-08T03:11:10.461Z,95.90
2023-01-08T03:12:06.231Z,96.50
2023-01-08T03:12:45.229Z,96.50
2023-01-08T03:13:27.122Z,96.50
2023-01-08T03:14:02.639Z,96.50
2023-01-08T03:14:58.588Z,96.50
2023-01-08T03:15:37.751Z,96.50
2023-01-08T03:16:17.883Z,96.50
2023-01-08T03:16:55.040Z,96.50
2023-01-08T03:17:37.137Z,96.50
2023-01-08T03:18:15.080Z,96.50
2023-01-08T03:18:52.900Z,96.50
2023-01-08T03:19:39.646Z,96.50
2023-01-08T03:20:21.698Z,96.60
2023-01-08T03:21:28.366Z,96.60
2023-01-08T03:22:03.578Z,96.60
2023-01-08T03:22:40.351Z,96.50
2023-01-08T03:23:14.278Z,96.60
2023-01-08T03:23:48.699Z,96.60
2023-01-08T03:24:28.295Z,96.60
2023-01-08T03:25:35.257Z,96.50
2023-01-08T03:26:09.600Z,96.50
2023-01-08T03:26:45.660Z,96.60
2023-01-08T03:27:23.012Z,96.60
2023-01-08T03:28:01.624Z,96.60
2023-01-08T03:28:47.379Z,96.60
2023-01-08T03:29:24.526Z,96.50
2023-01-08T03:29:59.488Z,96.50
2023-01-08T03:31:07.265Z,96.50
2023-01-08T03:31:41.440Z,96.50
2023-01-08T03:32:17.189Z,96.60
2023-01-08T03:32:51.580Z,96.60
2023-01-08T03:33:26.548Z,96.60
2023-01-08T03:34:02.523Z,96.60
2023-01-08T03:34:38.541Z,96.60
2023-01-08T03:35:14.151Z,96.50
2023-01-08T03:35:51.084Z,96.60
2023-01-08T03:36:28.733Z,96.50
2023-01-08T03:37:04.784Z,96.60
2023-01-08T03:37:41.118Z,96.60
2023-01-08T03:38:42.206Z,96.60
2023-01-08T03:39:21.279Z,96.60
2023-01-08T03:40:01.152Z,96.60
2023-01-08T03:40:41.027Z,96.60
2023-01-08T03:41:19.230Z,97.70
2023-01-08T03:41:57.159Z,96.60
2023-01-08T03:42:32.189Z,96.70
2023-01-08T03:43:37.086Z,96.70
2023-01-08T03:45:54.658Z,96.60
2023-01-08T03:46:34.727Z,96.70
2023-01-08T03:47:10.882Z,96.70
2023-01-08T03:47:45.620Z,96.60
2023-01-08T03:48:21.221Z,96.70
2023-01-08T03:48:53.896Z,96.70
2023-01-08T03:49:30.116Z,96.80
2023-01-08T03:50:05.454Z,96.80
2023-01-08T03:51:10.810Z,96.70
2023-01-08T03:51:45.194Z,96.10
2023-01-08T03:52:27.756Z,96.70
2023-01-08T03:53:00.947Z,96.70
2023-01-08T03:53:33.339Z,96.70
2023-01-08T03:54:05.564Z,96.90
2023-01-08T03:54:38.056Z,96.70
2023-01-08T03:56:16.072Z,96.80
2023-01-08T03:56:48.118Z,96.70
2023-01-08T03:57:52.934Z,96.80
2023-01-08T03:58:57.568Z,96.80
2023-01-08T04:00:38.070Z,96.80
2023-01-08T04:01:10.119Z,96.80
2023-01-08T04:02:15.416Z,96.80
2023-01-08T04:04:25.570Z,96.80
2023-01-08T04:04:57.530Z,96.80
2023-01-08T04:05:29.699Z,96.80
2023-01-08T04:06:01.568Z,96.80
2023-01-08T04:07:06.941Z,96.90
2023-01-08T04:08:43.929Z,96.80
2023-01-08T04:09:48.275Z,96.90
2023-01-08T04:10:53.014Z,96.90
2023-01-08T04:11:25.103Z,96.90
2023-01-08T04:11:57.120Z,96.00
2023-01-08T04:13:01.673Z,96.90
2023-01-08T04:13:33.711Z,96.90
2023-01-08T04:14:06.653Z,96.90
2023-01-08T04:14:38.540Z,96.90
2023-01-08T04:15:11.308Z,96.90
2023-01-08T04:15:49.176Z,96.90
2023-01-08T04:16:21.201Z,97.00
2023-01-08T04:17:25.643Z,97.00
2023-01-08T04:19:02.292Z,97.00
2023-01-08T04:20:07.395Z,97.00
2023-01-08T04:20:39.639Z,97.00
2023-01-08T04:23:54.824Z,97.00
2023-01-08T04:24:59.153Z,97.00
2023-01-08T04:26:10.287Z,97.00
2023-01-08T04:26:42.155Z,97.10
2023-01-08T04:29:23.927Z,97.00
2023-01-08T04:29:56.180Z,97.10
2023-01-08T04:30:28.223Z,97.10
2023-01-08T04:31:00.316Z,97.10
2023-01-08T04:32:05.340Z,97.10
2023-01-08T04:33:42.090Z,97.10
2023-01-08T04:34:14.172Z,97.10
2023-01-08T04:34:46.171Z,97.10
2023-01-08T04:36:23.435Z,97.10
2023-01-08T04:36:55.495Z,97.10
2023-01-08T04:37:27.646Z,97.00
2023-01-08T04:37:59.585Z,97.00
2023-01-08T04:39:04.678Z,97.10
2023-01-08T04:39:36.694Z,97.10
2023-01-08T04:40:09.355Z,97.90
2023-01-08T04:41:14.040Z,97.00
2023-01-08T04:41:46.105Z,97.00
2023-01-08T04:42:18.128Z,97.00
2023-01-08T04:42:49.990Z,97.00
2023-01-08T04:43:22.074Z,97.00
2023-01-08T04:43:53.952Z,97.00
2023-01-08T04:44:26.262Z,97.00
2023-01-08T04:44:58.242Z,97.00
2023-01-08T04:45:30.549Z,97.10
2023-01-08T04:46:05.189Z,97.00
2023-01-08T04:46:38.061Z,98.00
2023-01-08T04:47:09.941Z,97.30
2023-01-08T04:47:42.339Z,97.00
2023-01-08T04:48:14.228Z,97.00
2023-01-08T04:49:19.416Z,97.00
2023-01-08T04:49:51.388Z,97.00
2023-01-08T04:50:23.400Z,96.90
2023-01-08T04:50:58.231Z,97.00
2023-01-08T04:51:30.070Z,96.90
2023-01-08T04:52:02.222Z,97.40
2023-01-08T04:52:34.622Z,97.00
2023-01-08T04:53:06.851Z,96.90
2023-01-08T04:53:41.279Z,96.90
2023-01-08T04:54:13.484Z,96.80
2023-01-08T04:54:45.349Z,96.90
2023-01-08T04:55:17.409Z,97.00
2023-01-08T04:55:49.483Z,96.90
2023-01-08T04:56:21.440Z,96.90
2023-01-08T04:56:53.599Z,96.90
2023-01-08T04:57:25.721Z,96.90
2023-01-08T04:57:57.555Z,96.90
2023-01-08T04:58:30.015Z,96.90
2023-01-08T04:59:34.847Z,96.90
2023-01-08T05:00:08.032Z,96.90
2023-01-08T05:00:40.681Z,97.00
2023-01-08T05:01:23.975Z,95.90
2023-01-08T05:01:56.816Z,96.90
2023-01-08T05:02:29.688Z,96.80
2023-01-08T05:03:01.998Z,96.80
2023-01-08T05:03:36.648Z,96.80
2023-01-08T05:04:10.915Z,96.90
2023-01-08T05:04:42.790Z,96.80
2023-01-08T05:05:49.838Z,96.80
2023-01-08T05:06:22.337Z,96.80
2023-01-08T05:06:54.356Z,96.90
2023-01-08T05:07:26.697Z,96.80
2023-01-08T05:07:59.440Z,96.90
2023-01-08T05:08:31.443Z,96.90
2023-01-08T05:09:04.183Z,96.80
2023-01-08T05:09:36.195Z,96.80
2023-01-08T05:10:08.712Z,96.80
2023-01-08T05:10:40.962Z,96.80
2023-01-08T05:11:12.883Z,96.80
2023-01-08T05:11:45.152Z,97.00
2023-01-08T05:12:17.169Z,96.80
2023-01-08T05:12:49.089Z,96.70
2023-01-08T05:13:20.957Z,96.70
2023-01-08T05:13:54.070Z,96.70
2023-01-08T05:14:25.960Z,97.30
2023-01-08T05:14:57.921Z,96.70
2023-01-08T05:15:30.073Z,96.70
2023-01-08T05:16:02.705Z,96.70
2023-01-08T05:16:34.759Z,96.70
2023-01-08T05:17:06.688Z,96.00
2023-01-08T05:17:38.840Z,96.70
2023-01-08T05:18:10.818Z,96.60
2023-01-08T05:18:43.547Z,96.60
2023-01-08T05:19:15.765Z,96.60
2023-01-08T05:19:47.668Z,96.60
2023-01-08T05:20:19.653Z,96.60
2023-01-08T05:20:52.898Z,96.60
2023-01-08T05:21:25.281Z,96.60
2023-01-08T05:21:58.064Z,96.70
2023-01-08T05:22:29.995Z,96.60
2023-01-08T05:23:02.500Z,96.70
2023-01-08T05:23:34.844Z,96.60
2023-01-08T05:24:07.121Z,96.60
2023-01-08T05:24:39.094Z,96.70
2023-01-08T05:25:11.069Z,96.60
2023-01-08T05:25:43.089Z,96.60
2023-01-08T05:26:15.856Z,96.70
2023-01-08T05:26:47.714Z,96.60
2023-01-08T05:27:19.713Z,96.60
2023-01-08T05:27:52.923Z,96.60
2023-01-08T05:28:26.319Z,96.70
2023-01-08T05:28:58.587Z,96.60
2023-01-08T05:29:30.490Z,96.60
2023-01-08T05:30:02.651Z,96.60
2023-01-08T05:30:37.445Z,96.60
2023-01-08T05:31:09.409Z,96.60
2023-01-08T05:31:41.394Z,96.60
2023-01-08T05:32:18.387Z,96.60
2023-01-08T05:32:50.363Z,96.60
2023-01-08T05:33:23.051Z,95.90
2023-01-08T05:33:57.257Z,96.60
2023-01-08T05:34:29.388Z,96.50
2023-01-08T05:35:01.337Z,96.50
2023-01-08T05:35:33.463Z,96.50
2023-01-08T05:36:10.562Z,96.50
2023-01-08T05:36:43.489Z,96.50
2023-01-08T05:37:15.330Z,96.50
2023-01-08T05:37:47.326Z,96.50
2023-01-08T05:38:19.419Z,96.60
2023-01-08T05:38:51.392Z,96.50
2023-01-08T05:39:23.244Z,96.50
2023-01-08T05:39:55.259Z,96.50
2023-01-08T05:40:27.416Z,96.40
2023-01-08T05:40:59.284Z,96.50
2023-01-08T05:41:31.219Z,96.50
2023-01-08T05:42:03.534Z,96.50
2023-01-08T05:42:36.788Z,96.50
2023-01-08T05:43:08.634Z,96.50
2023-01-08T05:43:40.510Z,96.50
2023-01-08T05:44:12.483Z,96.50
2023-01-08T05:44:44.317Z,96.50
2023-01-08T05:45:16.903Z,96.40
2023-01-08T05:45:48.883Z,96.40
2023-01-08T05:46:20.896Z,96.50
2023-01-08T05:46:55.642Z,96.50
2023-01-08T05:47:30.830Z,96.50
2023-01-08T05:48:07.091Z,96.40
2023-01-08T05:48:39.164Z,96.40
2023-01-08T05:49:11.225Z,96.40
2023-01-08T05:49:43.331Z,96.40
2023-01-08T05:50:15.581Z,96.40
2023-01-08T05:50:50.380Z,96.40
2023-01-08T05:51:22.308Z,96.40
2023-01-08T05:51:54.172Z,96.40
2023-01-08T05:52:26.698Z,96.40
2023-01-08T05:52:58.728Z,95.80
2023-01-08T05:53:34.447Z,96.40
2023-01-08T05:54:06.435Z,96.60
2023-01-08T05:54:38.304Z,96.40
2023-01-08T05:55:10.365Z,96.40
2023-01-08T05:55:42.527Z,96.40
2023-01-08T05:56:14.800Z,96.40
2023-01-08T05:56:46.823Z,96.50
2023-01-08T05:57:18.833Z,96.40
2023-01-08T05:57:50.755Z,96.40
2023-01-08T05:58:23.403Z,96.50
2023-01-08T05:58:55.942Z,96.40
2023-01-08T05:59:28.031Z,96.40
2023-01-08T06:00:00.021Z,96.40
2023-01-08T06:00:33.921Z,96.50
2023-01-08T06:01:09.593Z,96.40
2023-01-08T06:01:41.798Z,96.40
2023-01-08T06:02:14.197Z,96.40
2023-01-08T06:02:47.553Z,96.50
2023-01-08T06:03:23.212Z,97.40
2023-01-08T06:03:56.833Z,97.60
2023-01-08T06:04:28.768Z,96.40
2023-01-08T06:05:00.879Z,96.40
2023-01-08T06:05:33.405Z,96.40
2023-01-08T06:06:07.755Z,96.30
2023-01-08T06:06:39.820Z,96.30
2023-01-08T06:07:11.692Z,96.30
2023-01-08T06:07:43.741Z,96.30
2023-01-08T06:08:16.544Z,96.40
2023-01-08T06:08:48.417Z,96.40
2023-01-08T06:09:20.413Z,96.30
2023-01-08T06:09:52.336Z,96.40
2023-01-08T06:10:24.241Z,96.30
2023-01-08T06:11:03.065Z,96.50
2023-01-08T06:11:35.101Z,96.40
2023-01-08T06:12:07.363Z,96.30
2023-01-08T06:12:39.307Z,96.30
2023-01-08T06:13:11.357Z,96.30
2023-01-08T06:13:44.570Z,96.30
2023-01-08T06:14:17.269Z,96.20
2023-01-08T06:14:49.126Z,96.20
2023-01-08T06:15:21.029Z,96.30
2023-01-08T06:15:52.918Z,96.20
2023-01-08T06:16:24.954Z,96.40
2023-01-08T06:16:57.076Z,95.50
2023-01-08T06:17:29.094Z,96.30
2023-01-08T06:18:04.702Z,96.30
2023-01-08T06:18:37.352Z,96.30
2023-01-08T06:19:11.322Z,96.20
2023-01-08T06:19:43.217Z,96.20
2023-01-08T06:20:15.325Z,96.30
2023-01-08T06:20:47.184Z,96.20
2023-01-08T06:21:19.134Z,96.20
2023-01-08T06:21:51.046Z,96.20
2023-01-08T06:22:23.176Z,96.20
2023-01-08T06:22:55.222Z,96.20
2023-01-08T06:23:27.245Z,96.20
2023-01-08T06:23:59.453Z,96.20
2023-01-08T06:24:32.359Z,96.20
2023-01-08T06:25:05.044Z,96.20
2023-01-08T06:25:37.488Z,96.20
2023-01-08T06:26:10.473Z,96.20
2023-01-08T06:26:42.504Z,96.30
2023-01-08T06:27:14.689Z,96.10
2023-01-08T06:27:54.069Z,96.60
2023-01-08T06:28:26.534Z,96.50
2023-01-08T06:28:58.717Z,96.20
2023-01-08T06:29:30.687Z,96.10
2023-01-08T06:30:02.955Z,96.10
2023-01-08T06:30:34.952Z,96.10
2023-01-08T06:31:06.996Z,96.10
2023-01-08T06:31:39.138Z,96.10
2023-01-08T06:32:11.418Z,96.10
2023-01-08T06:32:43.663Z,96.10
2023-01-08T06:33:16.665Z,96.10
2023-01-08T06:33:49.072Z,96.10
2023-01-08T06:34:21.051Z,96.10
2023-01-08T06:34:52.881Z,96.10
2023-01-08T06:35:25.622Z,96.10
2023-01-08T06:36:04.850Z,96.10
2023-01-08T06:36:37.010Z,96.30
2023-01-08T06:37:08.892Z,96.20
2023-01-08T06:37:41.001Z,96.20
2023-01-08T06:38:13.037Z,96.10
2023-01-08T06:38:45.109Z,96.10
2023-01-08T06:39:17.833Z,96.80
2023-01-08T06:39:50.055Z,96.10
2023-01-08T06:40:22.505Z,96.10
2023-01-08T06:40:54.361Z,96.20
2023-01-08T06:41:26.331Z,96.10
2023-01-08T06:41:58.575Z,96.20
2023-01-08T06:42:30.595Z,96.20
2023-01-08T06:43:06.526Z,96.00
2023-01-08T06:43:39.245Z,96.10
2023-01-08T06:44:11.320Z,96.10
2023-01-08T06:44:43.326Z,96.10
2023-01-08T06:45:15.499Z,96.20
2023-01-08T06:45:53.970Z,96.20
2023-01-08T06:46:26.164Z,96.40
2023-01-08T06:46:58.176Z,96.20
2023-01-08T06:47:30.157Z,96.20
2023-01-08T06:48:04.178Z,96.20
2023-01-08T06:48:36.967Z,96.20
2023-01-08T06:49:09.837Z,96.20
2023-01-08T06:49:41.864Z,96.10
2023-01-08T06:50:13.807Z,96.10
2023-01-08T06:50:45.742Z,96.20
2023-01-08T06:51:17.889Z,96.10
2023-01-08T06:51:49.948Z,96.10
2023-01-08T06:52:22.053Z,96.10
2023-01-08T06:52:55.066Z,96.10
2023-01-08T06:53:27.590Z,96.10
2023-01-08T06:53:59.959Z,96.10
2023-01-08T06:54:31.900Z,96.10
2023-01-08T06:55:05.304Z,96.10
2023-01-08T06:55:38.313Z,96.10
2023-01-08T06:56:11.157Z,96.00
2023-01-08T06:56:53.246Z,96.10
2023-01-08T06:57:26.163Z,96.00
2023-01-08T06:57:59.219Z,96.00
2023-01-08T06:58:31.659Z,96.00
2023-01-08T06:59:03.705Z,96.00
2023-01-08T06:59:35.750Z,96.10
2023-01-08T07:00:08.324Z,96.00
2023-01-08T07:00:40.836Z,96.80
2023-01-08T07:01:16.296Z,96.00
2023-01-08T07:01:48.978Z,96.00
2023-01-08T07:02:23.457Z,96.00
2023-01-08T07:02:57.346Z,96.00
2023-01-08T07:03:29.390Z,96.00
2023-01-08T07:04:01.453Z,96.00
2023-01-08T07:04:33.302Z,96.00
2023-01-08T07:05:05.552Z,96.00
2023-01-08T07:05:37.532Z,96.00
2023-01-08T07:06:20.315Z,96.00
2023-01-08T07:06:52.263Z,96.00
2023-01-08T07:07:24.523Z,96.00
2023-01-08T07:07:56.749Z,96.00
2023-01-08T07:08:29.023Z,96.00
2023-01-08T07:09:00.825Z,96.00
2023-01-08T07:09:34.888Z,95.90
2023-01-08T07:10:06.974Z,95.90
2023-01-08T07:10:39.021Z,96.00
2023-01-08T07:11:11.186Z,96.00
2023-01-08T07:11:43.183Z,96.00
2023-01-08T07:12:15.545Z,96.00
2023-01-08T07:12:48.481Z,96.10
2023-01-08T07:13:21.103Z,96.00
2023-01-08T07:13:53.108Z,96.10
2023-01-08T07:14:25.064Z,96.10
2023-01-08T07:14:57.167Z,96.00
2023-01-08T07:15:29.151Z,96.00
2023-01-08T07:16:09.108Z,96.50
2023-01-08T07:16:40.915Z,96.30
2023-01-08T07:17:12.925Z,97.00
2023-01-08T07:17:44.763Z,96.10
2023-01-08T07:18:16.614Z,96.80
2023-01-08T07:18:48.646Z,96.10
2023-01-08T07:19:20.731Z,96.10
2023-01-08T07:19:52.807Z,96.10
2023-01-08T07:20:25.007Z,96.00
2023-01-08T07:20:56.964Z,96.30
2023-01-08T07:21:28.887Z,96.10
2023-01-08T07:22:00.893Z,95.70
2023-01-08T07:22:33.216Z,96.10
2023-01-08T07:23:07.457Z,96.10
2023-01-08T07:23:39.568Z,96.00
2023-01-08T07:24:11.469Z,96.00
2023-01-08T07:24:43.666Z,95.90
2023-01-08T07:25:15.650Z,96.10
2023-01-08T07:25:47.665Z,96.10
2023-01-08T07:26:19.926Z,96.10
2023-01-08T07:26:51.970Z,96.10
2023-01-08T07:27:23.999Z,96.00
2023-01-08T07:27:55.853Z,96.10
2023-01-08T07:28:28.857Z,96.20
2023-01-08T07:29:01.357Z,96.20
2023-01-08T07:29:33.365Z,96.20
2023-01-08T07:30:06.068Z,96.20
2023-01-08T07:30:38.217Z,96.10
2023-01-08T07:31:10.679Z,95.80
2023-01-08T07:31:42.697Z,96.20
2023-01-08T07:32:15.017Z,97.10
2023-01-08T07:32:46.962Z,96.30
2023-01-08T07:33:18.968Z,96.30
2023-01-08T07:33:50.930Z,96.40
2023-01-08T07:34:22.867Z,96.30
2023-01-08T07:34:59.051Z,96.30
2023-01-08T07:35:31.240Z,96.30
2023-01-08T07:36:03.837Z,96.30
2023-01-08T07:36:36.079Z,96.30
2023-01-08T07:37:07.960Z,96.30
2023-01-08T07:37:43.361Z,96.30
2023-01-08T07:38:15.205Z,96.30
2023-01-08T07:38:47.216Z,96.30
2023-01-08T07:39:19.232Z,96.30
2023-01-08T07:39:53.012Z,96.30
2023-01-08T07:40:25.202Z,96.30
2023-01-08T07:41:00.048Z,96.30
2023-01-08T07:41:32.375Z,95.80
2023-01-08T07:42:04.422Z,96.30
2023-01-08T07:42:36.833Z,96.30
2023-01-08T07:43:09.900Z,96.40
2023-01-08T07:43:41.957Z,96.30
2023-01-08T07:44:14.007Z,96.40
2023-01-08T07:44:46.022Z,96.30
2023-01-08T07:45:17.925Z,96.30
2023-01-08T07:45:50.157Z,96.30
2023-01-08T07:46:23.183Z,96.30
2023-01-08T07:46:55.617Z,96.30
2023-01-08T07:47:27.579Z,96.30
2023-01-08T07:48:00.486Z,96.30
2023-01-08T07:48:32.457Z,96.30
2023-01-08T07:49:05.394Z,96.30
2023-01-08T07:49:37.649Z,96.30
2023-01-08T07:50:10.184Z,96.20
2023-01-08T07:50:43.967Z,96.30
2023-01-08T07:51:15.858Z,96.30
2023-01-08T07:51:49.990Z,96.30
2023-01-08T07:52:22.169Z,96.20
2023-01-08T07:53:00.126Z,96.20
2023-01-08T07:53:32.857Z,96.20
2023-01-08T07:54:04.920Z,96.20
2023-01-08T07:54:36.903Z,96.20
2023-01-08T07:55:09.391Z,96.30
2023-01-08T07:55:41.388Z,96.30
2023-01-08T07:56:13.389Z,96.30
2023-01-08T07:56:46.295Z,96.30
2023-01-08T07:57:18.205Z,96.30
2023-01-08T07:57:50.269Z,96.30
2023-01-08T07:58:22.167Z,96.30
2023-01-08T07:58:54.209Z,96.30
2023-01-08T07:59:26.093Z,96.30
2023-01-08T07:59:58.132Z,96.30
2023-01-08T08:00:30.185Z,96.30
2023-01-08T08:01:02.788Z,96.30
2023-01-08T08:01:35.118Z,96.20
2023-01-08T08:02:07.827Z,96.20
2023-01-08T08:02:39.989Z,96.20
2023-01-08T08:03:12.264Z,96.20
2023-01-08T08:03:44.306Z,96.20
2023-01-08T08:04:16.377Z,96.20
2023-01-08T08:04:48.549Z,96.20
2023-01-08T08:05:20.554Z,96.20
2023-01-08T08:05:52.874Z,96.20
2023-01-08T08:06:24.728Z,96.20
2023-01-08T08:06:56.664Z,96.10
2023-01-08T08:07:31.575Z,96.10
2023-01-08T08:08:09.857Z,96.10
2023-01-08T08:08:42.354Z,96.10
2023-01-08T08:09:14.474Z,96.20
2023-01-08T08:09:46.417Z,96.10
2023-01-08T08:10:18.556Z,96.20
2023-01-08T08:10:50.454Z,96.20
2023-01-08T08:11:22.351Z,96.10
2023-01-08T08:11:54.649Z,96.10
2023-01-08T08:12:26.646Z,96.20
2023-01-08T08:12:58.620Z,96.10
2023-01-08T08:13:30.679Z,96.10
2023-01-08T08:14:02.737Z,96.10
2023-01-08T08:14:34.648Z,96.10
2023-01-08T08:15:07.171Z,96.10
2023-01-08T08:15:40.832Z,96.10
2023-01-08T08:16:13.317Z,97.10
2023-01-08T08:16:45.434Z,96.00
2023-01-08T08:17:17.400Z,96.10
2023-01-08T08:17:50.168Z,96.10
2023-01-08T08:18:22.122Z,96.10
2023-01-08T08:18:54.064Z,96.10
2023-01-08T08:19:25.874Z,95.50
2023-01-08T08:19:57.974Z,96.10
2023-01-08T08:20:29.875Z,96.00
2023-01-08T08:21:01.710Z,96.10
2023-01-08T08:21:33.792Z,96.00
2023-01-08T08:22:06.700Z,96.00
2023-01-08T08:22:38.563Z,96.10
2023-01-08T08:23:13.853Z,96.10
2023-01-08T08:23:45.934Z,96.10
2023-01-08T08:24:17.909Z,96.10
2023-01-08T08:24:49.926Z,96.00
2023-01-08T08:25:21.797Z,96.10
2023-01-08T08:25:53.855Z,96.10
2023-01-08T08:26:25.993Z,96.00
2023-01-08T08:26:57.905Z,96.10
2023-01-08T08:27:29.792Z,96.10
2023-01-08T08:28:02.495Z,97.30
2023-01-08T08:28:34.340Z,96.10
2023-01-08T08:29:06.348Z,96.30
2023-01-08T08:29:38.564Z,96.20
2023-01-08T08:30:12.015Z,96.10
2023-01-08T08:30:44.199Z,96.30
2023-01-08T08:31:16.727Z,96.10
2023-01-08T08:31:48.877Z,97.10
2023-01-08T08:32:21.052Z,97.10
2023-01-08T08:32:53.904Z,96.10
2023-01-08T08:33:26.116Z,97.20
2023-01-08T08:33:57.952Z,96.30
2023-01-08T08:34:30.221Z,96.10
2023-01-08T08:35:02.635Z,96.00
2023-01-08T08:35:35.126Z,96.10
2023-01-08T08:36:07.680Z,96.00
2023-01-08T08:36:39.729Z,96.00
2023-01-08T08:37:11.916Z,96.10
2023-01-08T08:37:43.962Z,96.00
2023-01-08T08:38:16.031Z,96.00
2023-01-08T08:38:48.229Z,96.00
2023-01-08T08:39:20.554Z,96.00
2023-01-08T08:39:52.973Z,96.00
2023-01-08T08:40:26.223Z,96.00
2023-01-08T08:40:58.539Z,96.10
2023-01-08T08:41:30.849Z,96.00
2023-01-08T08:42:02.946Z,96.00
2023-01-08T08:42:35.057Z,96.00
2023-01-08T08:43:07.463Z,96.00
2023-01-08T08:43:39.579Z,96.00
2023-01-08T08:44:11.601Z,96.00
2023-01-08T08:44:43.914Z,96.00
2023-01-08T08:45:15.990Z,96.00
2023-01-08T08:45:48.215Z,96.00
2023-01-08T08:46:20.148Z,95.90
2023-01-08T08:46:52.437Z,96.00
2023-01-08T08:47:24.425Z,96.00
2023-01-08T08:47:56.331Z,96.00
2023-01-08T08:48:28.690Z,96.00
2023-01-08T08:49:00.888Z,96.00
2023-01-08T08:49:32.895Z,96.00
2023-01-08T08:50:06.519Z,95.90
2023-01-08T08:50:39.177Z,95.90
2023-01-08T08:51:11.079Z,95.90
2023-01-08T08:51:42.942Z,95.90
2023-01-08T08:52:15.087Z,96.00
2023-01-08T08:52:48.847Z,96.00
2023-01-08T08:53:20.746Z,95.90
2023-01-08T08:53:52.799Z,96.20
2023-01-08T08:54:24.600Z,95.90
2023-01-08T08:54:56.517Z,95.90
2023-01-08T08:55:29.618Z,97.10
2023-01-08T08:56:01.876Z,96.70
2023-01-08T08:56:33.867Z,95.90
2023-01-08T08:57:05.822Z,95.90
2023-01-08T08:57:37.766Z,95.90
2023-01-08T08:58:13.780Z,97.20
2023-01-08T08:58:45.823Z,95.80
2023-01-08T08:59:18.052Z,95.80
2023-01-08T08:59:49.947Z,95.80
2023-01-08T09:00:21.955Z,95.80
2023-01-08T09:00:53.884Z,95.80
2023-01-08T09:01:26.306Z,95.80
2023-01-08T09:01:58.725Z,95.80
2023-01-08T09:02:31.186Z,95.80
2023-01-08T09:03:03.603Z,95.80
2023-01-08T09:03:35.775Z,95.80
2023-01-08T09:04:08.048Z,95.70
2023-01-08T09:04:39.985Z,95.80
2023-01-08T09:05:12.608Z,95.80
2023-01-08T09:05:44.585Z,95.30
2023-01-08T09:06:16.782Z,95.80
2023-01-08T09:06:48.610Z,96.80
2023-01-08T09:07:20.558Z,95.80
2023-01-08T09:07:52.565Z,95.80
2023-01-08T09:08:24.491Z,95.50
2023-01-08T09:08:56.256Z,95.90
2023-01-08T09:09:28.986Z,96.80
2023-01-08T09:10:00.812Z,95.90
2023-01-08T09:10:32.891Z,95.90
2023-01-08T09:11:04.960Z,95.90
2023-01-08T09:11:37.094Z,95.90
2023-01-08T09:12:10.268Z,95.90
2023-01-08T09:12:42.181Z,96.00
2023-01-08T09:13:15.556Z,95.90
2023-01-08T09:13:47.470Z,95.90
2023-01-08T09:14:20.073Z,95.90
2023-01-08T09:14:52.087Z,95.90
2023-01-08T09:15:24.341Z,95.90
2023-01-08T09:15:59.354Z,96.00
2023-01-08T09:16:33.003Z,96.00
2023-01-08T09:17:05.052Z,95.80
2023-01-08T09:17:37.134Z,96.00
2023-01-08T09:18:09.484Z,95.90
2023-01-08T09:18:41.403Z,95.90
2023-01-08T09:19:13.412Z,95.80
2023-01-08T09:19:45.604Z,95.90
2023-01-08T09:20:17.632Z,95.90
2023-01-08T09:20:49.569Z,95.90
2023-01-08T09:21:21.462Z,95.90